createdAt,value
2022-11-22T00:00:56.895Z,69.20
2022-11-22T00:03:32.866Z,61.50
2022-11-22T00:06:08.920Z,64.40
2022-11-22T00:08:44.911Z,59.70
2022-11-22T00:11:20.936Z,53.40
2022-11-22T00:13:57.119Z,61.00
2022-11-22T00:16:34.596Z,60.30
2022-11-22T00:19:11.599Z,60.00
2022-11-22T00:21:47.594Z,71.10
2022-11-22T00:24:23.564Z,66.70
2022-11-22T00:26:59.438Z,67.90
2022-11-22T00:29:35.413Z,65.50
2022-11-22T00:32:11.663Z,64.80
2022-11-22T00:34:47.817Z,64.30
2022-11-22T00:37:24.043Z,71.40
2022-11-22T00:40:00.539Z,60.60
2022-11-22T00:42:36.658Z,60.40
2022-11-22T00:45:14.626Z,60.80
2022-11-22T00:47:50.476Z,55.10
2022-11-22T00:50:26.829Z,59.60
2022-11-22T00:53:03.195Z,58.40
2022-11-22T00:55:39.092Z,59.40
2022-11-22T00:58:14.991Z,58.00
2022-11-22T01:00:56.252Z,60.30
2022-11-22T01:03:33.051Z,62.30
2022-11-22T01:06:09.065Z,64.90
2022-11-22T01:08:44.973Z,56.90
2022-11-22T01:11:22.414Z,55.00
2022-11-22T01:13:58.398Z,62.20
2022-11-22T01:16:35.014Z,58.60
2022-11-22T01:19:11.966Z,60.80
2022-11-22T01:21:48.014Z,60.70
2022-11-22T01:24:23.981Z,64.70
2022-11-22T01:27:00.613Z,56.50
2022-11-22T01:29:36.514Z,55.70
2022-11-22T01:32:12.643Z,52.10
2022-11-22T01:34:48.641Z,52.80
2022-11-22T01:37:24.591Z,61.50
2022-11-22T01:40:00.459Z,56.10
2022-11-22T01:42:53.802Z,56.60
2022-11-22T01:45:54.028Z,48.50
2022-11-22T01:48:43.689Z,60.10
2022-11-22T01:51:29.667Z,57.80
2022-11-22T01:54:13.565Z,61.20
2022-11-22T01:56:56.997Z,60.60
2022-11-22T01:59:38.668Z,56.50
2022-11-22T02:02:15.592Z,61.70
2022-11-22T02:04:54.376Z,60.10
2022-11-22T02:07:37.467Z,57.40
2022-11-22T02:10:15.574Z,60.20
2022-11-22T02:12:53.857Z,51.30
2022-11-22T02:15:30.225Z,52.20
2022-11-22T02:18:06.174Z,60.90
2022-11-22T02:20:42.886Z,54.40
2022-11-22T02:23:32.749Z,51.20
2022-11-22T02:26:09.443Z,60.30
2022-11-22T02:28:45.924Z,58.20
2022-11-22T02:31:45.186Z,53.10
2022-11-22T02:34:21.201Z,54.30
2022-11-22T02:36:58.224Z,55.10
2022-11-22T02:39:36.174Z,53.10
2022-11-22T02:42:12.515Z,56.90
2022-11-22T02:44:48.516Z,52.60
2022-11-22T02:47:24.552Z,55.10
2022-11-22T02:50:00.367Z,55.90
2022-11-22T02:52:36.282Z,53.20
2022-11-22T02:55:13.282Z,57.40
2022-11-22T02:57:49.078Z,56.20
2022-11-22T03:00:26.254Z,57.50
2022-11-22T03:03:02.260Z,59.60
2022-11-22T03:05:38.220Z,60.40
2022-11-22T03:08:14.025Z,57.40
2022-11-22T03:10:49.874Z,56.90
2022-11-22T03:13:25.746Z,64.50
2022-11-22T03:16:01.637Z,69.80
2022-11-22T03:18:39.002Z,59.70
2022-11-22T03:21:16.080Z,58.90
2022-11-22T03:23:51.977Z,60.20
2022-11-22T03:26:28.144Z,58.30
2022-11-22T03:29:04.339Z,58.90
2022-11-22T03:31:40.140Z,72.00
2022-11-22T03:34:17.539Z,66.30
2022-11-22T03:36:53.600Z,60.90
2022-11-22T03:39:29.972Z,63.20
2022-11-22T03:42:06.215Z,66.40
2022-11-22T03:44:42.119Z,72.10
2022-11-22T03:47:18.007Z,62.40
2022-11-22T03:49:53.955Z,73.10
2022-11-22T03:52:30.015Z,67.20
2022-11-22T03:55:06.383Z,61.60
2022-11-22T03:57:42.205Z,67.50
2022-11-22T04:00:20.299Z,67.00
2022-11-22T04:02:56.275Z,63.70
2022-11-22T04:05:32.403Z,71.60
2022-11-22T04:08:08.740Z,63.60
2022-11-22T04:10:44.721Z,67.70
2022-11-22T04:13:21.069Z,66.30
2022-11-22T04:15:58.266Z,57.70
2022-11-22T04:18:34.068Z,49.40
2022-11-22T04:21:35.859Z,80.30
2022-11-22T04:24:31.669Z,69.60
2022-11-22T04:27:07.506Z,96.60
2022-11-22T04:29:43.261Z,91.20
2022-11-22T04:32:36.732Z,105.10
2022-11-22T04:35:13.677Z,91.70
2022-11-22T04:37:54.358Z,91.70
2022-11-22T04:40:30.204Z,64.30
2022-11-22T04:43:24.856Z,65.90
2022-11-22T04:46:00.604Z,59.80
2022-11-22T04:48:36.884Z,61.60
2022-11-22T04:51:35.088Z,55.10
2022-11-22T04:54:10.967Z,56.30
2022-11-22T04:56:46.705Z,50.00
2022-11-22T04:59:22.666Z,53.10
2022-11-22T05:01:59.687Z,51.50
2022-11-22T05:04:35.800Z,48.70
2022-11-22T05:07:11.757Z,50.10
2022-11-22T05:09:47.735Z,47.90
2022-11-22T05:12:23.666Z,47.00
2022-11-22T05:14:59.642Z,41.20
2022-11-22T05:17:35.692Z,50.10
2022-11-22T05:20:14.305Z,40.50
2022-11-22T05:23:08.099Z,43.50
2022-11-22T05:25:44.221Z,48.90
2022-11-22T05:28:20.281Z,48.60
2022-11-22T05:30:56.051Z,49.10
2022-11-22T05:33:31.884Z,47.80
2022-11-22T05:36:09.526Z,43.50
2022-11-22T05:38:46.053Z,48.00
2022-11-22T05:41:22.185Z,49.00
2022-11-22T05:44:00.018Z,46.90
2022-11-22T05:46:36.855Z,44.10
2022-11-22T05:49:12.927Z,40.50
2022-11-22T05:51:48.695Z,46.40
2022-11-22T05:54:24.627Z,41.40
2022-11-22T05:57:00.612Z,43.10
2022-11-22T05:59:41.097Z,46.60
2022-11-22T06:02:19.751Z,47.00
2022-11-22T06:04:56.089Z,45.80
2022-11-22T06:07:32.517Z,46.00
2022-11-22T06:10:10.047Z,45.40
2022-11-22T06:12:45.878Z,46.50
2022-11-22T06:15:21.965Z,44.80
2022-11-22T06:17:57.834Z,43.40
2022-11-22T06:20:33.701Z,49.50
2022-11-22T06:23:09.488Z,39.60
2022-11-22T06:25:45.658Z,40.90
2022-11-22T06:28:21.510Z,45.70
2022-11-22T06:31:01.474Z,46.10
2022-11-22T06:33:38.079Z,50.10
2022-11-22T06:36:18.592Z,43.00
2022-11-22T06:38:55.011Z,46.40
2022-11-22T06:41:35.707Z,46.20
2022-11-22T06:44:18.863Z,49.20
2022-11-22T06:46:56.892Z,52.20
2022-11-22T06:49:32.882Z,51.80
2022-11-22T06:52:09.548Z,58.00
2022-11-22T06:54:45.433Z,54.10
2022-11-22T06:57:22.259Z,52.40
2022-11-22T06:59:58.023Z,55.40
2022-11-22T07:02:34.222Z,49.70
2022-11-22T07:05:25.583Z,56.60
2022-11-22T07:10:47.986Z,50.20
2022-11-22T07:13:24.517Z,47.10
2022-11-22T07:16:06.215Z,43.00
2022-11-22T07:18:42.677Z,48.70
2022-11-22T07:21:21.908Z,50.30
2022-11-22T07:23:59.982Z,48.00
2022-11-22T07:26:35.900Z,46.20
2022-11-22T07:29:11.965Z,49.30
2022-11-22T07:31:49.455Z,47.70
2022-11-22T07:34:25.781Z,43.80
2022-11-22T07:37:06.198Z,40.90
2022-11-22T07:39:44.792Z,41.20
2022-11-22T07:42:25.822Z,39.30
2022-11-22T07:45:02.915Z,39.00
2022-11-22T07:47:38.874Z,35.80
2022-11-22T07:50:15.840Z,39.90
2022-11-22T07:52:59.884Z,35.10
2022-11-22T07:55:36.098Z,33.30
2022-11-22T07:58:12.045Z,37.20
2022-11-22T08:00:48.002Z,36.00
2022-11-22T08:03:28.562Z,35.20
2022-11-22T08:06:08.008Z,29.00
2022-11-22T08:08:43.889Z,35.00
2022-11-22T08:11:19.782Z,39.70
2022-11-22T08:13:55.563Z,38.70
2022-11-22T08:16:31.458Z,34.80
2022-11-22T08:19:07.360Z,36.10
2022-11-22T08:21:43.331Z,34.80
2022-11-22T08:24:20.014Z,32.80
2022-11-22T08:26:58.095Z,36.60
2022-11-22T08:29:33.817Z,30.10
2022-11-22T08:32:10.671Z,37.80
2022-11-22T08:34:47.470Z,32.50
2022-11-22T08:37:23.571Z,34.80
2022-11-22T08:40:00.399Z,29.60
2022-11-22T08:42:36.357Z,32.40
2022-11-22T08:45:13.976Z,30.60
2022-11-22T08:47:50.161Z,26.80
2022-11-22T08:50:25.896Z,27.90
2022-11-22T08:53:02.962Z,29.50
2022-11-22T08:55:39.025Z,28.10
2022-11-22T08:58:14.916Z,33.90
2022-11-22T09:00:50.871Z,30.80
2022-11-22T09:03:26.649Z,26.20
2022-11-22T09:09:35.729Z,31.50
2022-11-22T09:12:01.806Z,29.70
2022-11-22T09:14:38.207Z,30.30
2022-11-22T09:17:17.766Z,35.00
2022-11-22T09:19:54.202Z,31.20
2022-11-22T09:22:29.970Z,29.10
2022-11-22T09:25:07.509Z,29.70
2022-11-22T09:27:43.337Z,26.20
2022-11-22T09:30:21.649Z,27.00
2022-11-22T09:32:57.549Z,19.10
2022-11-22T09:35:33.288Z,26.10
2022-11-22T09:38:09.238Z,29.40
2022-11-22T09:40:49.775Z,27.70
2022-11-22T09:43:40.846Z,25.90
2022-11-22T09:46:36.874Z,23.60
2022-11-22T09:49:37.787Z,22.70
2022-11-22T09:52:24.623Z,28.70
2022-11-22T09:55:07.179Z,26.70
2022-11-22T09:57:49.812Z,25.00
2022-11-22T10:00:28.639Z,23.70
2022-11-22T10:03:19.558Z,26.80
2022-11-22T10:06:02.473Z,24.70
2022-11-22T10:08:49.932Z,25.10
2022-11-22T10:11:37.190Z,24.90
2022-11-22T10:14:37.212Z,24.50
2022-11-22T10:17:30.943Z,25.70
2022-11-22T10:20:18.642Z,26.70
2022-11-22T10:22:56.157Z,23.10
2022-11-22T10:25:42.120Z,27.70
2022-11-22T10:28:27.243Z,25.00
2022-11-22T10:31:19.692Z,23.60
2022-11-22T10:34:10.354Z,25.00
2022-11-22T10:37:00.143Z,23.20
2022-11-22T10:40:04.749Z,22.10
2022-11-22T10:43:13.881Z,22.70
2022-11-22T10:46:03.078Z,23.60
2022-11-22T10:48:51.965Z,24.30
2022-11-22T10:51:43.903Z,25.30
2022-11-22T10:54:32.928Z,19.10
2022-11-22T10:57:24.118Z,22.60
2022-11-22T11:00:25.089Z,22.50
2022-11-22T11:03:19.433Z,23.00
2022-11-22T11:06:26.664Z,20.20
2022-11-22T11:10:02.851Z,26.90
2022-11-22T11:12:15.787Z,23.20
2022-11-22T11:14:57.970Z,24.90
2022-11-22T11:17:38.933Z,22.20
2022-11-22T11:20:27.396Z,21.50
2022-11-22T11:23:18.693Z,21.40
2022-11-22T11:25:54.902Z,23.90
2022-11-22T11:28:32.803Z,24.00
2022-11-22T11:31:15.850Z,23.10
2022-11-22T11:33:51.995Z,23.20
2022-11-22T11:36:28.908Z,23.70
2022-11-22T11:39:05.034Z,22.90
2022-11-22T11:41:43.544Z,20.10
2022-11-22T11:44:36.462Z,20.60
2022-11-22T11:47:33.924Z,20.40
2022-11-22T11:50:24.510Z,21.20
2022-11-22T11:53:25.465Z,22.60
2022-11-22T11:56:32.661Z,23.00
2022-11-22T11:59:19.575Z,21.50
2022-11-22T12:02:12.014Z,22.20
2022-11-22T12:04:59.372Z,23.50
2022-11-22T12:07:46.594Z,19.80
2022-11-22T12:11:00.944Z,20.80
2022-11-22T12:14:12.388Z,20.00
2022-11-22T12:16:48.488Z,19.80
2022-11-22T12:19:42.703Z,21.30
2022-11-22T12:22:48.798Z,21.50
2022-11-22T12:25:35.731Z,20.20
2022-11-22T12:28:23.928Z,22.80
2022-11-22T12:31:12.016Z,22.90
2022-11-22T12:33:58.364Z,20.20
2022-11-22T12:36:43.443Z,22.00
2022-11-22T12:39:25.828Z,22.70
2022-11-22T12:42:10.175Z,22.10
2022-11-22T12:44:58.483Z,22.60
2022-11-22T12:47:41.333Z,32.50
2022-11-22T12:50:31.306Z,39.80
2022-11-22T12:53:15.486Z,42.40
2022-11-22T12:56:02.389Z,39.90
2022-11-22T12:58:48.975Z,44.80
2022-11-22T13:01:35.833Z,43.80
2022-11-22T13:04:25.042Z,42.50
2022-11-22T13:07:16.627Z,41.80
2022-11-22T13:10:04.550Z,35.40
2022-11-22T13:12:45.925Z,38.70
2022-11-22T13:15:32.106Z,34.70
2022-11-22T13:18:18.100Z,38.80
2022-11-22T13:21:07.226Z,34.30
2022-11-22T13:24:11.888Z,37.70
2022-11-22T13:27:09.339Z,36.50
2022-11-22T13:29:48.391Z,41.10
2022-11-22T13:32:29.283Z,37.00
2022-11-22T13:35:30.735Z,33.00
2022-11-22T13:38:16.222Z,40.30
2022-11-22T13:40:53.981Z,36.20
2022-11-22T13:44:16.775Z,33.90
2022-11-22T13:47:04.899Z,33.20
2022-11-22T13:49:49.213Z,38.20
2022-11-22T13:52:55.182Z,35.90
2022-11-22T13:55:42.372Z,35.80
2022-11-22T13:59:05.060Z,35.10
2022-11-22T14:02:22.298Z,32.40
2022-11-22T14:05:01.812Z,37.10
2022-11-22T14:07:43.821Z,34.90
2022-11-22T14:10:46.912Z,37.00
2022-11-22T14:13:48.423Z,38.10
2022-11-22T14:16:58.037Z,37.50
2022-11-22T14:19:52.775Z,38.70
2022-11-22T14:22:51.055Z,36.10
2022-11-22T14:25:57.308Z,33.00
2022-11-22T14:29:41.705Z,37.90
2022-11-22T14:32:24.827Z,29.50
2022-11-22T14:35:36.584Z,28.70
2022-11-22T14:38:42.734Z,32.20
2022-11-22T14:41:49.903Z,28.40
2022-11-22T14:44:35.422Z,31.60
2022-11-22T14:47:15.680Z,29.60
2022-11-22T14:49:54.560Z,32.80
2022-11-22T14:52:36.551Z,34.20
2022-11-22T14:55:22.376Z,34.00
2022-11-22T14:58:06.880Z,40.00
2022-11-22T15:01:16.147Z,39.10
2022-11-22T15:09:11.237Z,33.30
2022-11-22T15:09:13.160Z,32.70
2022-11-22T15:12:02.802Z,32.50
2022-11-22T15:57:58.338Z,32.30
2022-11-22T16:00:34.942Z,32.40
2022-11-22T16:03:29.860Z,33.30
2022-11-22T16:06:14.658Z,32.50
2022-11-22T16:08:59.875Z,36.10
2022-11-22T16:11:40.927Z,34.30
2022-11-22T16:14:51.497Z,34.70
2022-11-22T16:17:39.688Z,33.90
2022-11-22T16:20:36.836Z,40.60
2022-11-22T16:23:33.972Z,35.00
2022-11-22T16:26:29.562Z,33.70
2022-11-22T16:29:32.319Z,32.80
2022-11-22T16:32:16.463Z,34.00
2022-11-22T16:35:08.356Z,31.50
2022-11-22T16:37:50.029Z,36.40
2022-11-22T16:40:26.040Z,40.70
2022-11-22T16:43:06.760Z,34.00
2022-11-22T16:45:45.993Z,41.00
2022-11-22T16:48:33.708Z,31.50
2022-11-22T16:51:16.168Z,32.10
2022-11-22T16:53:54.321Z,32.80
2022-11-22T16:56:33.683Z,33.50
2022-11-22T16:59:12.954Z,30.20
2022-11-22T17:01:50.123Z,31.90
2022-11-22T17:04:28.740Z,32.00
2022-11-22T17:07:04.936Z,35.20
2022-11-22T17:09:41.115Z,34.80
2022-11-22T17:12:27.855Z,31.30
2022-11-22T17:15:11.513Z,33.00
2022-11-22T17:17:47.454Z,28.20
2022-11-22T17:20:23.617Z,30.50
2022-11-22T17:22:59.515Z,27.60
2022-11-22T17:25:35.625Z,30.90
2022-11-22T17:28:11.799Z,30.30
2022-11-22T17:30:47.965Z,28.80
2022-11-22T17:33:24.998Z,30.90
2022-11-22T17:36:01.133Z,28.00
2022-11-22T17:38:37.255Z,29.20
2022-11-22T17:41:13.291Z,29.90
2022-11-22T17:43:49.296Z,29.50
2022-11-22T17:46:25.671Z,27.70
2022-11-22T17:49:04.406Z,31.30
2022-11-22T17:51:40.396Z,33.10
2022-11-22T17:54:16.374Z,28.30
2022-11-22T17:56:52.433Z,29.90
2022-11-22T17:59:28.583Z,32.70
2022-11-22T18:02:04.858Z,41.70
2022-11-22T18:04:42.678Z,35.60
2022-11-22T18:07:20.118Z,37.40
2022-11-22T18:09:56.312Z,34.00
2022-11-22T18:12:35.472Z,36.00
2022-11-22T18:15:32.825Z,35.30
2022-11-22T18:18:27.259Z,30.60
2022-11-22T18:21:15.677Z,31.60
2022-11-22T18:23:53.302Z,36.20
2022-11-22T18:26:44.926Z,36.60
2022-11-22T18:32:17.716Z,34.30
2022-11-22T18:34:53.729Z,33.40
2022-11-22T18:37:29.591Z,32.10
2022-11-22T18:40:06.809Z,44.80
2022-11-22T18:42:43.067Z,44.10
2022-11-22T18:45:23.424Z,46.40
2022-11-22T18:48:03.677Z,41.00
2022-11-22T18:50:40.247Z,42.90
2022-11-22T18:53:16.875Z,37.10
2022-11-22T18:55:52.849Z,29.70
2022-11-22T18:58:33.536Z,42.30
2022-11-22T19:01:18.370Z,40.30
2022-11-22T19:03:54.871Z,41.30
2022-11-22T19:06:31.174Z,39.10
2022-11-22T19:09:08.950Z,37.00
2022-11-22T19:11:48.686Z,37.40
2022-11-22T19:14:24.808Z,38.20
2022-11-22T19:17:02.400Z,36.70
2022-11-22T19:19:38.706Z,39.20
2022-11-22T19:22:15.167Z,42.20
2022-11-22T19:24:51.631Z,44.20
2022-11-22T19:27:27.894Z,37.30
2022-11-22T19:30:09.691Z,39.90
2022-11-22T19:32:47.456Z,44.00
2022-11-22T19:35:23.743Z,41.50
2022-11-22T19:37:59.703Z,46.10
2022-11-22T19:40:37.059Z,37.30
2022-11-22T19:43:16.567Z,44.40
2022-11-22T19:45:52.898Z,50.90
2022-11-22T19:48:30.085Z,41.90
2022-11-22T19:51:15.735Z,39.60
2022-11-22T19:53:54.077Z,41.00
2022-11-22T19:56:33.979Z,38.80
2022-11-22T19:59:15.787Z,44.90
2022-11-22T20:01:52.275Z,36.80
2022-11-22T20:04:31.040Z,40.60
2022-11-22T20:07:08.101Z,39.00
2022-11-22T20:09:44.450Z,36.80
2022-11-22T20:12:20.353Z,38.70
2022-11-22T20:14:56.562Z,40.60
2022-11-22T20:17:33.855Z,38.90
2022-11-22T20:20:12.727Z,37.60
2022-11-22T20:22:48.663Z,39.20
2022-11-22T20:25:24.950Z,38.30
2022-11-22T20:28:00.938Z,39.60
2022-11-22T20:30:37.118Z,41.60
2022-11-22T20:33:13.379Z,38.80
2022-11-22T20:35:50.258Z,38.20
2022-11-22T20:38:26.528Z,38.00
2022-11-22T20:41:04.856Z,44.00
2022-11-22T20:43:41.575Z,41.90
2022-11-22T20:46:20.794Z,40.10
2022-11-22T20:48:58.233Z,40.00
2022-11-22T20:51:36.336Z,36.40
2022-11-22T20:54:15.311Z,41.30
2022-11-22T20:56:51.313Z,42.30
2022-11-22T20:59:27.472Z,37.10
2022-11-22T21:02:09.049Z,43.90
2022-11-22T21:07:19.783Z,34.80
2022-11-22T21:09:55.906Z,39.00
2022-11-22T21:12:32.026Z,38.20
2022-11-22T21:15:09.538Z,36.80
2022-11-22T21:18:02.400Z,41.00
2022-11-22T21:20:41.656Z,37.90
2022-11-22T21:23:17.547Z,38.00
2022-11-22T21:25:54.803Z,38.60
2022-11-22T21:28:33.289Z,34.70
2022-11-22T21:31:09.713Z,37.40
2022-11-22T21:33:46.532Z,36.70
2022-11-22T21:36:23.977Z,38.90
2022-11-22T21:39:00.162Z,41.10
2022-11-22T21:41:40.847Z,38.60
2022-11-22T21:44:17.252Z,41.60
2022-11-22T21:46:53.294Z,40.40
2022-11-22T21:49:29.445Z,39.60
2022-11-22T21:52:06.109Z,41.80
2022-11-22T21:54:43.643Z,36.60
2022-11-22T21:57:19.548Z,40.60
2022-11-22T21:59:55.676Z,39.30
2022-11-22T22:02:32.939Z,39.30
2022-11-22T22:05:11.488Z,39.30
2022-11-22T22:07:55.011Z,39.80
2022-11-22T22:10:30.983Z,42.50
2022-11-22T22:13:06.862Z,39.70
2022-11-22T22:15:43.739Z,41.10
2022-11-22T22:18:19.735Z,36.10
2022-11-22T22:21:05.578Z,40.00
2022-11-22T22:23:44.000Z,36.20
2022-11-22T22:26:20.959Z,36.90
2022-11-22T22:28:57.750Z,39.20
2022-11-22T22:31:33.814Z,43.00
2022-11-22T22:34:09.967Z,41.80
2022-11-22T22:36:46.644Z,38.30
2022-11-22T22:39:22.805Z,38.80
2022-11-22T22:41:58.695Z,38.00
2022-11-22T22:44:34.614Z,38.10
2022-11-22T22:47:10.655Z,36.30
2022-11-22T22:49:46.546Z,35.00
2022-11-22T22:52:22.793Z,36.60
2022-11-22T22:54:58.700Z,39.50
2022-11-22T22:57:34.908Z,36.50
2022-11-22T23:00:15.534Z,34.90
2022-11-22T23:02:51.570Z,36.20
2022-11-22T23:05:27.983Z,36.30
2022-11-22T23:08:03.765Z,37.60
2022-11-22T23:10:39.880Z,38.10
2022-11-22T23:13:15.930Z,36.80
2022-11-22T23:15:58.366Z,36.20
2022-11-22T23:18:37.678Z,32.30
2022-11-22T23:21:16.191Z,36.80
2022-11-22T23:23:55.352Z,38.70
2022-11-22T23:26:31.411Z,39.20
2022-11-22T23:29:08.054Z,39.10
2022-11-22T23:31:44.016Z,36.60
2022-11-22T23:34:20.169Z,36.10
2022-11-22T23:36:56.055Z,35.20
2022-11-22T23:39:32.247Z,41.30
2022-11-22T23:42:08.952Z,35.70
2022-11-22T23:44:44.910Z,41.50
2022-11-22T23:47:20.761Z,39.60
2022-11-22T23:49:57.022Z,40.90
2022-11-22T23:52:32.779Z,45.30
2022-11-22T23:55:10.286Z,40.20
2022-11-22T23:57:46.343Z,38.40
